Saint Paul, Minnesota
Current Conditions -  °F | °C
As of 12:53 AM on Friday 28 Nov 2014 (Local Time) from KSTP Reporting Station
Light Snow Light Snow  
Wind Chill: -5°   Ceiling: 2800
Heat Index:   Visibility: 1.7mi
Dew Point:   Wind: 9mph
Humidity: 83%   Direction: 130°SE
Pressure: 30.27"   Gusts: NA
Location:  44.93°N, 93.07°W
Report Text: KSTP 280653Z AUTO 13008KT 1 3/4SM -SN BR OVC028 M13/M16 A3027 RMK AO2 SLP264 P0001 T11331156
Loading
Personal Weather Stations






























Interactive Weather Map New forecast layout! Learn more

10-Day Weather Forecast

Advertisements
Track Severe Weather on mobile